sensor_id;sensor_type;location;lat;lon;timestamp;temperature;humidity
23560;DHT22;11958;50.836;4.438;2022-07-15T00:02:00;17.30;62.70
23560;DHT22;11958;50.836;4.438;2022-07-15T00:04:26;17.30;62.70
23560;DHT22;11958;50.836;4.438;2022-07-15T00:06:52;17.20;62.90
23560;DHT22;11958;50.836;4.438;2022-07-15T00:09:17;17.10;63.30
23560;DHT22;11958;50.836;4.438;2022-07-15T00:11:43;17.00;63.60
23560;DHT22;11958;50.836;4.438;2022-07-15T00:14:08;17.00;63.50
23560;DHT22;11958;50.836;4.438;2022-07-15T00:16:34;17.10;63.10
23560;DHT22;11958;50.836;4.438;2022-07-15T00:18:59;17.10;63.20
23560;DHT22;11958;50.836;4.438;2022-07-15T00:21:25;16.80;63.40
23560;DHT22;11958;50.836;4.438;2022-07-15T00:23:51;16.80;63.70
23560;DHT22;11958;50.836;4.438;2022-07-15T00:26:16;16.80;63.80
23560;DHT22;11958;50.836;4.438;2022-07-15T00:28:42;16.90;63.50
23560;DHT22;11958;50.836;4.438;2022-07-15T00:31:07;16.70;64.50
23560;DHT22;11958;50.836;4.438;2022-07-15T00:33:33;16.80;63.80
23560;DHT22;11958;50.836;4.438;2022-07-15T00:35:59;16.70;64.40
23560;DHT22;11958;50.836;4.438;2022-07-15T00:38:24;16.80;63.20
23560;DHT22;11958;50.836;4.438;2022-07-15T00:40:50;16.70;63.80
23560;DHT22;11958;50.836;4.438;2022-07-15T00:43:17;16.70;63.60
23560;DHT22;11958;50.836;4.438;2022-07-15T00:45:43;16.70;64.50
23560;DHT22;11958;50.836;4.438;2022-07-15T00:48:10;16.60;64.10
23560;DHT22;11958;50.836;4.438;2022-07-15T00:50:36;16.60;64.10
23560;DHT22;11958;50.836;4.438;2022-07-15T00:55:42;16.70;63.60
23560;DHT22;11958;50.836;4.438;2022-07-15T00:58:11;16.60;63.70
23560;DHT22;11958;50.836;4.438;2022-07-15T01:00:37;16.60;63.90
23560;DHT22;11958;50.836;4.438;2022-07-15T01:03:04;16.80;63.20
23560;DHT22;11958;50.836;4.438;2022-07-15T01:05:30;16.60;63.80
23560;DHT22;11958;50.836;4.438;2022-07-15T01:07:56;16.30;65.00
23560;DHT22;11958;50.836;4.438;2022-07-15T01:10:22;16.40;66.00
23560;DHT22;11958;50.836;4.438;2022-07-15T01:12:50;16.50;65.50
23560;DHT22;11958;50.836;4.438;2022-07-15T01:15:17;16.30;65.50
23560;DHT22;11958;50.836;4.438;2022-07-15T01:17:45;16.20;66.60
23560;DHT22;11958;50.836;4.438;2022-07-15T01:20:11;16.10;67.40
23560;DHT22;11958;50.836;4.438;2022-07-15T01:22:38;16.10;67.40
23560;DHT22;11958;50.836;4.438;2022-07-15T01:25:04;16.10;67.60
23560;DHT22;11958;50.836;4.438;2022-07-15T01:27:30;16.10;66.30
23560;DHT22;11958;50.836;4.438;2022-07-15T01:29:56;16.10;66.20
23560;DHT22;11958;50.836;4.438;2022-07-15T01:32:21;16.20;66.00
23560;DHT22;11958;50.836;4.438;2022-07-15T01:34:47;16.10;66.00
23560;DHT22;11958;50.836;4.438;2022-07-15T01:37:14;16.10;66.10
23560;DHT22;11958;50.836;4.438;2022-07-15T01:39:40;16.10;66.60
23560;DHT22;11958;50.836;4.438;2022-07-15T01:42:06;16.00;66.60
23560;DHT22;11958;50.836;4.438;2022-07-15T01:44:32;16.10;66.30
23560;DHT22;11958;50.836;4.438;2022-07-15T01:46:57;16.10;66.50
23560;DHT22;11958;50.836;4.438;2022-07-15T01:49:23;16.00;66.70
23560;DHT22;11958;50.836;4.438;2022-07-15T01:51:55;15.90;67.20
23560;DHT22;11958;50.836;4.438;2022-07-15T01:54:26;16.00;68.00
23560;DHT22;11958;50.836;4.438;2022-07-15T01:56:52;15.90;68.10
23560;DHT22;11958;50.836;4.438;2022-07-15T01:59:19;16.00;67.60
23560;DHT22;11958;50.836;4.438;2022-07-15T02:01:48;16.10;67.80
23560;DHT22;11958;50.836;4.438;2022-07-15T02:04:14;16.00;67.90
23560;DHT22;11958;50.836;4.438;2022-07-15T02:06:40;16.20;67.20
23560;DHT22;11958;50.836;4.438;2022-07-15T02:09:06;16.00;67.70
23560;DHT22;11958;50.836;4.438;2022-07-15T02:11:32;16.20;67.50
23560;DHT22;11958;50.836;4.438;2022-07-15T02:13:58;15.90;68.50
23560;DHT22;11958;50.836;4.438;2022-07-15T02:16:31;15.90;69.10
23560;DHT22;11958;50.836;4.438;2022-07-15T02:18:57;16.00;68.70
23560;DHT22;11958;50.836;4.438;2022-07-15T02:21:24;15.80;69.40
23560;DHT22;11958;50.836;4.438;2022-07-15T02:23:52;15.80;69.30
23560;DHT22;11958;50.836;4.438;2022-07-15T02:26:18;16.00;68.20
23560;DHT22;11958;50.836;4.438;2022-07-15T02:28:44;16.20;67.90
23560;DHT22;11958;50.836;4.438;2022-07-15T02:31:09;16.10;67.70
23560;DHT22;11958;50.836;4.438;2022-07-15T02:33:35;16.00;67.90
23560;DHT22;11958;50.836;4.438;2022-07-15T02:36:01;15.80;69.40
23560;DHT22;11958;50.836;4.438;2022-07-15T02:38:26;15.70;69.40
23560;DHT22;11958;50.836;4.438;2022-07-15T02:40:52;15.70;69.60
23560;DHT22;11958;50.836;4.438;2022-07-15T02:43:17;15.80;68.80
23560;DHT22;11958;50.836;4.438;2022-07-15T02:45:43;15.70;69.20
23560;DHT22;11958;50.836;4.438;2022-07-15T02:48:09;15.70;69.70
23560;DHT22;11958;50.836;4.438;2022-07-15T02:50:35;15.70;69.60
23560;DHT22;11958;50.836;4.438;2022-07-15T02:53:02;15.60;70.10
23560;DHT22;11958;50.836;4.438;2022-07-15T02:55:29;15.70;69.90
23560;DHT22;11958;50.836;4.438;2022-07-15T02:57:54;15.50;70.30
23560;DHT22;11958;50.836;4.438;2022-07-15T03:00:20;15.40;70.40
23560;DHT22;11958;50.836;4.438;2022-07-15T03:02:48;15.70;70.00
23560;DHT22;11958;50.836;4.438;2022-07-15T03:05:14;16.00;68.70
23560;DHT22;11958;50.836;4.438;2022-07-15T03:07:40;16.00;68.60
23560;DHT22;11958;50.836;4.438;2022-07-15T03:10:07;15.80;69.10
23560;DHT22;11958;50.836;4.438;2022-07-15T03:12:33;15.70;69.90
23560;DHT22;11958;50.836;4.438;2022-07-15T03:15:00;15.80;69.90
23560;DHT22;11958;50.836;4.438;2022-07-15T03:17:26;15.80;70.10
23560;DHT22;11958;50.836;4.438;2022-07-15T03:19:52;15.90;69.30
23560;DHT22;11958;50.836;4.438;2022-07-15T03:22:18;15.80;69.90
23560;DHT22;11958;50.836;4.438;2022-07-15T03:24:43;15.70;69.50
23560;DHT22;11958;50.836;4.438;2022-07-15T03:27:09;15.60;69.80
23560;DHT22;11958;50.836;4.438;2022-07-15T03:29:35;15.50;69.70
23560;DHT22;11958;50.836;4.438;2022-07-15T03:32:01;15.40;70.70
23560;DHT22;11958;50.836;4.438;2022-07-15T03:34:27;15.50;70.00
23560;DHT22;11958;50.836;4.438;2022-07-15T03:36:54;15.40;71.30
23560;DHT22;11958;50.836;4.438;2022-07-15T03:39:21;15.50;70.30
23560;DHT22;11958;50.836;4.438;2022-07-15T03:41:46;15.40;70.30
23560;DHT22;11958;50.836;4.438;2022-07-15T03:44:12;15.40;72.30
23560;DHT22;11958;50.836;4.438;2022-07-15T03:46:39;15.40;72.50
23560;DHT22;11958;50.836;4.438;2022-07-15T03:49:05;15.50;70.20
23560;DHT22;11958;50.836;4.438;2022-07-15T03:51:31;15.50;70.40
23560;DHT22;11958;50.836;4.438;2022-07-15T03:54:05;15.80;69.70
23560;DHT22;11958;50.836;4.438;2022-07-15T03:56:32;15.60;69.90
23560;DHT22;11958;50.836;4.438;2022-07-15T03:58:59;15.30;72.10
23560;DHT22;11958;50.836;4.438;2022-07-15T04:01:25;15.00;73.10
23560;DHT22;11958;50.836;4.438;2022-07-15T04:03:52;15.10;73.10
23560;DHT22;11958;50.836;4.438;2022-07-15T04:06:19;15.10;73.50
23560;DHT22;11958;50.836;4.438;2022-07-15T04:08:46;15.40;71.40
23560;DHT22;11958;50.836;4.438;2022-07-15T04:11:12;15.50;69.90
23560;DHT22;11958;50.836;4.438;2022-07-15T04:13:39;15.40;69.70
23560;DHT22;11958;50.836;4.438;2022-07-15T04:16:05;15.30;71.60
23560;DHT22;11958;50.836;4.438;2022-07-15T04:18:31;15.40;71.60
23560;DHT22;11958;50.836;4.438;2022-07-15T04:20:57;15.20;72.10
23560;DHT22;11958;50.836;4.438;2022-07-15T04:23:23;15.30;71.90
23560;DHT22;11958;50.836;4.438;2022-07-15T04:25:49;15.10;72.50
23560;DHT22;11958;50.836;4.438;2022-07-15T04:28:21;14.90;72.90
23560;DHT22;11958;50.836;4.438;2022-07-15T04:30:46;15.00;73.30
23560;DHT22;11958;50.836;4.438;2022-07-15T04:33:13;14.90;73.00
23560;DHT22;11958;50.836;4.438;2022-07-15T04:35:38;15.00;73.00
23560;DHT22;11958;50.836;4.438;2022-07-15T04:38:05;14.90;73.70
23560;DHT22;11958;50.836;4.438;2022-07-15T04:40:31;14.90;73.70
23560;DHT22;11958;50.836;4.438;2022-07-15T04:42:58;14.80;74.00
23560;DHT22;11958;50.836;4.438;2022-07-15T04:45:24;15.00;73.80
23560;DHT22;11958;50.836;4.438;2022-07-15T04:47:50;15.20;73.30
23560;DHT22;11958;50.836;4.438;2022-07-15T04:50:16;15.30;72.80
23560;DHT22;11958;50.836;4.438;2022-07-15T04:53:00;15.30;73.20
23560;DHT22;11958;50.836;4.438;2022-07-15T04:55:26;15.60;70.40
23560;DHT22;11958;50.836;4.438;2022-07-15T04:57:52;15.40;71.10
23560;DHT22;11958;50.836;4.438;2022-07-15T05:00:18;15.60;71.10
23560;DHT22;11958;50.836;4.438;2022-07-15T05:02:44;15.80;70.50
23560;DHT22;11958;50.836;4.438;2022-07-15T05:05:10;15.90;70.10
23560;DHT22;11958;50.836;4.438;2022-07-15T05:07:36;16.10;69.30
23560;DHT22;11958;50.836;4.438;2022-07-15T05:10:03;16.00;70.00
23560;DHT22;11958;50.836;4.438;2022-07-15T05:12:29;16.10;69.90
23560;DHT22;11958;50.836;4.438;2022-07-15T05:14:55;16.10;69.30
23560;DHT22;11958;50.836;4.438;2022-07-15T05:17:20;16.20;69.50
23560;DHT22;11958;50.836;4.438;2022-07-15T05:19:46;16.10;69.70
23560;DHT22;11958;50.836;4.438;2022-07-15T05:22:11;16.40;68.50
23560;DHT22;11958;50.836;4.438;2022-07-15T05:24:37;16.40;69.00
23560;DHT22;11958;50.836;4.438;2022-07-15T05:27:03;16.30;69.50
23560;DHT22;11958;50.836;4.438;2022-07-15T05:29:28;16.30;69.60
23560;DHT22;11958;50.836;4.438;2022-07-15T05:31:54;16.30;69.90
23560;DHT22;11958;50.836;4.438;2022-07-15T05:34:20;16.50;68.80
23560;DHT22;11958;50.836;4.438;2022-07-15T05:36:45;16.50;68.60
23560;DHT22;11958;50.836;4.438;2022-07-15T05:39:11;16.70;68.00
23560;DHT22;11958;50.836;4.438;2022-07-15T05:41:37;16.70;67.40
23560;DHT22;11958;50.836;4.438;2022-07-15T05:44:03;16.90;67.00
23560;DHT22;11958;50.836;4.438;2022-07-15T05:46:28;17.10;66.30
23560;DHT22;11958;50.836;4.438;2022-07-15T05:48:54;16.90;66.30
23560;DHT22;11958;50.836;4.438;2022-07-15T05:51:20;17.10;65.20
23560;DHT22;11958;50.836;4.438;2022-07-15T05:53:47;16.90;65.70
23560;DHT22;11958;50.836;4.438;2022-07-15T05:56:13;16.80;66.90
23560;DHT22;11958;50.836;4.438;2022-07-15T05:58:39;16.90;66.20
23560;DHT22;11958;50.836;4.438;2022-07-15T06:01:04;17.00;65.60
23560;DHT22;11958;50.836;4.438;2022-07-15T06:03:30;17.00;65.20
23560;DHT22;11958;50.836;4.438;2022-07-15T06:05:59;17.10;65.20
23560;DHT22;11958;50.836;4.438;2022-07-15T06:08:25;17.10;64.90
23560;DHT22;11958;50.836;4.438;2022-07-15T06:10:50;17.20;64.00
23560;DHT22;11958;50.836;4.438;2022-07-15T06:13:16;17.30;63.00
23560;DHT22;11958;50.836;4.438;2022-07-15T06:15:42;17.20;62.80
23560;DHT22;11958;50.836;4.438;2022-07-15T06:18:11;17.10;62.70
23560;DHT22;11958;50.836;4.438;2022-07-15T06:20:37;17.30;63.80
23560;DHT22;11958;50.836;4.438;2022-07-15T06:23:02;17.50;62.50
23560;DHT22;11958;50.836;4.438;2022-07-15T06:25:28;17.90;61.10
23560;DHT22;11958;50.836;4.438;2022-07-15T06:27:54;17.70;61.70
23560;DHT22;11958;50.836;4.438;2022-07-15T06:30:19;17.80;62.00
23560;DHT22;11958;50.836;4.438;2022-07-15T06:32:45;18.00;61.30
23560;DHT22;11958;50.836;4.438;2022-07-15T06:35:11;18.20;59.00
23560;DHT22;11958;50.836;4.438;2022-07-15T06:37:37;18.00;60.70
23560;DHT22;11958;50.836;4.438;2022-07-15T06:40:03;17.80;61.00
23560;DHT22;11958;50.836;4.438;2022-07-15T06:42:28;17.70;61.60
23560;DHT22;11958;50.836;4.438;2022-07-15T06:44:54;17.80;61.80
23560;DHT22;11958;50.836;4.438;2022-07-15T06:47:19;17.80;61.80
23560;DHT22;11958;50.836;4.438;2022-07-15T06:49:46;18.10;60.50
23560;DHT22;11958;50.836;4.438;2022-07-15T06:52:12;18.00;60.60
23560;DHT22;11958;50.836;4.438;2022-07-15T06:54:37;18.30;58.50
23560;DHT22;11958;50.836;4.438;2022-07-15T06:57:03;18.40;58.10
23560;DHT22;11958;50.836;4.438;2022-07-15T06:59:29;18.30;58.10
23560;DHT22;11958;50.836;4.438;2022-07-15T07:01:54;18.20;58.40
23560;DHT22;11958;50.836;4.438;2022-07-15T07:04:21;18.40;57.70
23560;DHT22;11958;50.836;4.438;2022-07-15T07:06:47;19.00;55.20
23560;DHT22;11958;50.836;4.438;2022-07-15T07:09:13;19.00;55.00
23560;DHT22;11958;50.836;4.438;2022-07-15T07:11:39;19.20;54.30
23560;DHT22;11958;50.836;4.438;2022-07-15T07:14:05;19.50;53.00
23560;DHT22;11958;50.836;4.438;2022-07-15T07:16:31;19.40;52.40
23560;DHT22;11958;50.836;4.438;2022-07-15T07:18:57;20.00;50.20
23560;DHT22;11958;50.836;4.438;2022-07-15T07:21:22;19.80;51.20
23560;DHT22;11958;50.836;4.438;2022-07-15T07:23:48;19.20;51.30
23560;DHT22;11958;50.836;4.438;2022-07-15T07:26:15;18.90;53.40
23560;DHT22;11958;50.836;4.438;2022-07-15T07:28:41;18.90;52.30
23560;DHT22;11958;50.836;4.438;2022-07-15T07:31:10;18.80;52.30
23560;DHT22;11958;50.836;4.438;2022-07-15T07:33:37;19.30;51.30
23560;DHT22;11958;50.836;4.438;2022-07-15T07:36:04;19.30;50.60
23560;DHT22;11958;50.836;4.438;2022-07-15T07:38:31;19.40;50.80
23560;DHT22;11958;50.836;4.438;2022-07-15T07:40:57;19.60;49.70
23560;DHT22;11958;50.836;4.438;2022-07-15T07:43:22;19.30;51.10
23560;DHT22;11958;50.836;4.438;2022-07-15T07:45:49;19.10;51.30
23560;DHT22;11958;50.836;4.438;2022-07-15T07:48:15;19.00;51.50
23560;DHT22;11958;50.836;4.438;2022-07-15T07:50:43;19.10;51.40
23560;DHT22;11958;50.836;4.438;2022-07-15T07:53:09;19.40;51.80
23560;DHT22;11958;50.836;4.438;2022-07-15T07:55:36;19.50;52.10
23560;DHT22;11958;50.836;4.438;2022-07-15T07:58:02;19.80;50.50
23560;DHT22;11958;50.836;4.438;2022-07-15T08:00:29;19.90;48.90
23560;DHT22;11958;50.836;4.438;2022-07-15T08:02:56;20.20;48.20
23560;DHT22;11958;50.836;4.438;2022-07-15T08:05:25;20.00;48.00
23560;DHT22;11958;50.836;4.438;2022-07-15T08:08:05;19.70;48.70
23560;DHT22;11958;50.836;4.438;2022-07-15T08:10:30;19.40;50.40
23560;DHT22;11958;50.836;4.438;2022-07-15T08:12:56;19.40;50.00
23560;DHT22;11958;50.836;4.438;2022-07-15T08:15:22;19.40;49.10
23560;DHT22;11958;50.836;4.438;2022-07-15T08:17:47;19.90;48.80
23560;DHT22;11958;50.836;4.438;2022-07-15T08:20:13;20.00;48.70
23560;DHT22;11958;50.836;4.438;2022-07-15T08:22:38;20.20;47.70
23560;DHT22;11958;50.836;4.438;2022-07-15T08:25:05;19.80;48.10
23560;DHT22;11958;50.836;4.438;2022-07-15T08:27:31;19.70;48.80
23560;DHT22;11958;50.836;4.438;2022-07-15T08:29:57;20.60;47.70
23560;DHT22;11958;50.836;4.438;2022-07-15T08:32:23;20.50;46.90
23560;DHT22;11958;50.836;4.438;2022-07-15T08:34:49;20.50;47.00
23560;DHT22;11958;50.836;4.438;2022-07-15T08:37:15;20.90;44.20
23560;DHT22;11958;50.836;4.438;2022-07-15T08:39:42;21.20;44.20
23560;DHT22;11958;50.836;4.438;2022-07-15T08:42:07;21.10;44.20
23560;DHT22;11958;50.836;4.438;2022-07-15T08:44:33;20.70;46.00
23560;DHT22;11958;50.836;4.438;2022-07-15T08:47:03;20.50;44.90
23560;DHT22;11958;50.836;4.438;2022-07-15T08:49:31;20.40;44.60
23560;DHT22;11958;50.836;4.438;2022-07-15T08:51:59;21.00;41.70
23560;DHT22;11958;50.836;4.438;2022-07-15T08:54:26;21.00;42.40
23560;DHT22;11958;50.836;4.438;2022-07-15T08:56:51;20.40;45.10
23560;DHT22;11958;50.836;4.438;2022-07-15T08:59:17;20.30;46.70
23560;DHT22;11958;50.836;4.438;2022-07-15T09:01:45;20.60;45.10
23560;DHT22;11958;50.836;4.438;2022-07-15T09:04:11;20.50;45.70
23560;DHT22;11958;50.836;4.438;2022-07-15T09:06:42;20.60;45.50
23560;DHT22;11958;50.836;4.438;2022-07-15T09:09:29;20.70;44.80
23560;DHT22;11958;50.836;4.438;2022-07-15T09:12:06;20.60;44.80
23560;DHT22;11958;50.836;4.438;2022-07-15T09:14:34;20.70;42.70
23560;DHT22;11958;50.836;4.438;2022-07-15T09:22:25;21.20;40.60
23560;DHT22;11958;50.836;4.438;2022-07-15T09:27:32;21.20;42.70
23560;DHT22;11958;50.836;4.438;2022-07-15T09:30:16;21.30;41.40
23560;DHT22;11958;50.836;4.438;2022-07-15T09:33:04;21.00;41.40
23560;DHT22;11958;50.836;4.438;2022-07-15T09:35:48;21.10;42.50
23560;DHT22;11958;50.836;4.438;2022-07-15T09:38:39;21.10;41.80
23560;DHT22;11958;50.836;4.438;2022-07-15T09:41:14;21.00;41.60
23560;DHT22;11958;50.836;4.438;2022-07-15T09:43:53;20.80;43.00
23560;DHT22;11958;50.836;4.438;2022-07-15T09:46:20;21.20;40.80
23560;DHT22;11958;50.836;4.438;2022-07-15T09:48:48;21.50;39.30
23560;DHT22;11958;50.836;4.438;2022-07-15T09:51:15;21.40;39.90
23560;DHT22;11958;50.836;4.438;2022-07-15T09:53:41;21.40;40.70
23560;DHT22;11958;50.836;4.438;2022-07-15T09:56:13;21.40;39.30
23560;DHT22;11958;50.836;4.438;2022-07-15T09:58:41;21.90;38.70
23560;DHT22;11958;50.836;4.438;2022-07-15T10:01:08;21.80;38.80
23560;DHT22;11958;50.836;4.438;2022-07-15T10:03:35;21.70;38.80
23560;DHT22;11958;50.836;4.438;2022-07-15T10:06:01;21.50;38.60
23560;DHT22;11958;50.836;4.438;2022-07-15T10:08:29;21.60;38.80
23560;DHT22;11958;50.836;4.438;2022-07-15T10:10:57;21.70;38.60
23560;DHT22;11958;50.836;4.438;2022-07-15T10:24:44;23.20;36.00
23560;DHT22;11958;50.836;4.438;2022-07-15T10:29:36;22.60;37.10
23560;DHT22;11958;50.836;4.438;2022-07-15T10:32:02;22.70;35.30
23560;DHT22;11958;50.836;4.438;2022-07-15T10:34:35;22.50;36.60
23560;DHT22;11958;50.836;4.438;2022-07-15T10:37:09;23.00;35.50
23560;DHT22;11958;50.836;4.438;2022-07-15T10:42:17;22.60;38.80
23560;DHT22;11958;50.836;4.438;2022-07-15T10:47:24;22.60;36.30
23560;DHT22;11958;50.836;4.438;2022-07-15T10:49:51;22.80;36.50
23560;DHT22;11958;50.836;4.438;2022-07-15T10:52:22;23.00;35.30
23560;DHT22;11958;50.836;4.438;2022-07-15T10:57:20;23.90;33.00
23560;DHT22;11958;50.836;4.438;2022-07-15T10:59:54;24.00;31.90
23560;DHT22;11958;50.836;4.438;2022-07-15T11:02:22;24.30;31.80
23560;DHT22;11958;50.836;4.438;2022-07-15T11:04:50;24.30;31.90
23560;DHT22;11958;50.836;4.438;2022-07-15T11:09:54;25.10;30.90
23560;DHT22;11958;50.836;4.438;2022-07-15T11:15:11;24.30;32.60
23560;DHT22;11958;50.836;4.438;2022-07-15T11:17:46;24.10;32.30
23560;DHT22;11958;50.836;4.438;2022-07-15T11:20:15;24.10;31.20
23560;DHT22;11958;50.836;4.438;2022-07-15T11:22:43;24.20;30.60
23560;DHT22;11958;50.836;4.438;2022-07-15T11:27:56;24.20;31.00
23560;DHT22;11958;50.836;4.438;2022-07-15T11:30:22;24.00;32.00
23560;DHT22;11958;50.836;4.438;2022-07-15T11:32:55;23.80;31.50
23560;DHT22;11958;50.836;4.438;2022-07-15T11:35:21;23.50;32.50
23560;DHT22;11958;50.836;4.438;2022-07-15T11:37:47;23.60;33.00
23560;DHT22;11958;50.836;4.438;2022-07-15T11:40:17;24.00;32.40
23560;DHT22;11958;50.836;4.438;2022-07-15T11:43:12;24.50;32.40
23560;DHT22;11958;50.836;4.438;2022-07-15T11:45:56;24.60;30.40
23560;DHT22;11958;50.836;4.438;2022-07-15T11:48:22;24.80;29.30
23560;DHT22;11958;50.836;4.438;2022-07-15T11:50:56;25.30;29.20
23560;DHT22;11958;50.836;4.438;2022-07-15T11:53:23;25.30;29.20
23560;DHT22;11958;50.836;4.438;2022-07-15T11:55:56;24.60;28.10
23560;DHT22;11958;50.836;4.438;2022-07-15T12:01:13;24.60;31.00
23560;DHT22;11958;50.836;4.438;2022-07-15T12:03:45;25.30;28.20
23560;DHT22;11958;50.836;4.438;2022-07-15T12:08:47;25.40;26.90
23560;DHT22;11958;50.836;4.438;2022-07-15T12:11:18;25.60;26.90
23560;DHT22;11958;50.836;4.438;2022-07-15T12:14:01;25.30;28.70
23560;DHT22;11958;50.836;4.438;2022-07-15T12:16:40;25.00;28.70
23560;DHT22;11958;50.836;4.438;2022-07-15T12:19:18;26.00;26.60
23560;DHT22;11958;50.836;4.438;2022-07-15T12:21:51;25.90;27.20
23560;DHT22;11958;50.836;4.438;2022-07-15T12:24:25;25.60;27.70
23560;DHT22;11958;50.836;4.438;2022-07-15T12:29:29;27.40;24.60
23560;DHT22;11958;50.836;4.438;2022-07-15T12:32:09;27.00;26.00
23560;DHT22;11958;50.836;4.438;2022-07-15T12:37:17;26.40;25.50
23560;DHT22;11958;50.836;4.438;2022-07-15T12:42:20;28.10;23.10
23560;DHT22;11958;50.836;4.438;2022-07-15T12:50:25;26.80;24.00
23560;DHT22;11958;50.836;4.438;2022-07-15T12:52:54;26.50;24.40
23560;DHT22;11958;50.836;4.438;2022-07-15T12:55:21;26.00;26.30
23560;DHT22;11958;50.836;4.438;2022-07-15T12:57:48;25.50;26.40
23560;DHT22;11958;50.836;4.438;2022-07-15T13:00:23;25.70;26.60
23560;DHT22;11958;50.836;4.438;2022-07-15T13:03:10;27.20;24.90
23560;DHT22;11958;50.836;4.438;2022-07-15T13:05:38;28.80;22.00
23560;DHT22;11958;50.836;4.438;2022-07-15T13:08:08;30.50;19.90
23560;DHT22;11958;50.836;4.438;2022-07-15T13:10:35;30.00;20.70
23560;DHT22;11958;50.836;4.438;2022-07-15T13:13:01;28.90;22.10
23560;DHT22;11958;50.836;4.438;2022-07-15T13:15:27;27.10;23.50
23560;DHT22;11958;50.836;4.438;2022-07-15T13:17:53;26.50;24.90
23560;DHT22;11958;50.836;4.438;2022-07-15T13:20:19;26.10;25.70
23560;DHT22;11958;50.836;4.438;2022-07-15T13:22:45;25.80;26.70
23560;DHT22;11958;50.836;4.438;2022-07-15T13:25:11;27.00;25.40
23560;DHT22;11958;50.836;4.438;2022-07-15T13:27:38;28.00;24.70
23560;DHT22;11958;50.836;4.438;2022-07-15T13:30:04;27.50;24.90
23560;DHT22;11958;50.836;4.438;2022-07-15T13:32:31;26.60;24.90
23560;DHT22;11958;50.836;4.438;2022-07-15T13:34:56;26.20;26.90
23560;DHT22;11958;50.836;4.438;2022-07-15T13:37:22;26.00;26.10
23560;DHT22;11958;50.836;4.438;2022-07-15T13:39:48;25.60;26.10
23560;DHT22;11958;50.836;4.438;2022-07-15T13:42:13;25.20;26.00
23560;DHT22;11958;50.836;4.438;2022-07-15T13:44:39;25.30;26.40
23560;DHT22;11958;50.836;4.438;2022-07-15T13:47:04;25.20;26.70
23560;DHT22;11958;50.836;4.438;2022-07-15T13:49:30;25.00;27.30
23560;DHT22;11958;50.836;4.438;2022-07-15T13:52:14;25.10;26.80
23560;DHT22;11958;50.836;4.438;2022-07-15T13:54:39;25.30;26.60
23560;DHT22;11958;50.836;4.438;2022-07-15T13:57:05;25.30;28.10
23560;DHT22;11958;50.836;4.438;2022-07-15T13:59:31;25.60;26.20
23560;DHT22;11958;50.836;4.438;2022-07-15T14:01:56;25.10;27.40
23560;DHT22;11958;50.836;4.438;2022-07-15T14:04:22;24.60;27.10
23560;DHT22;11958;50.836;4.438;2022-07-15T14:06:47;24.20;28.30
23560;DHT22;11958;50.836;4.438;2022-07-15T14:09:13;23.80;28.70
23560;DHT22;11958;50.836;4.438;2022-07-15T14:11:39;23.80;29.40
23560;DHT22;11958;50.836;4.438;2022-07-15T14:14:04;23.70;29.50
23560;DHT22;11958;50.836;4.438;2022-07-15T14:16:30;23.80;29.40
23560;DHT22;11958;50.836;4.438;2022-07-15T14:18:55;24.00;28.80
23560;DHT22;11958;50.836;4.438;2022-07-15T14:21:21;24.10;29.30
23560;DHT22;11958;50.836;4.438;2022-07-15T14:23:48;24.40;29.30
23560;DHT22;11958;50.836;4.438;2022-07-15T14:26:14;24.50;28.00
23560;DHT22;11958;50.836;4.438;2022-07-15T14:28:40;24.30;27.90
23560;DHT22;11958;50.836;4.438;2022-07-15T14:31:07;24.10;28.50
23560;DHT22;11958;50.836;4.438;2022-07-15T14:33:33;24.30;28.00
23560;DHT22;11958;50.836;4.438;2022-07-15T14:35:59;24.40;28.30
23560;DHT22;11958;50.836;4.438;2022-07-15T14:38:25;24.60;27.00
23560;DHT22;11958;50.836;4.438;2022-07-15T14:40:50;24.70;27.40
23560;DHT22;11958;50.836;4.438;2022-07-15T14:43:16;24.60;27.10
23560;DHT22;11958;50.836;4.438;2022-07-15T14:45:42;24.30;27.60
23560;DHT22;11958;50.836;4.438;2022-07-15T14:48:07;24.00;28.90
23560;DHT22;11958;50.836;4.438;2022-07-15T14:50:33;23.90;29.90
23560;DHT22;11958;50.836;4.438;2022-07-15T14:53:00;23.90;29.60
23560;DHT22;11958;50.836;4.438;2022-07-15T14:55:26;23.90;29.70
23560;DHT22;11958;50.836;4.438;2022-07-15T14:57:52;24.00;30.00
23560;DHT22;11958;50.836;4.438;2022-07-15T15:00:17;24.00;29.70
23560;DHT22;11958;50.836;4.438;2022-07-15T15:02:43;24.10;29.40
23560;DHT22;11958;50.836;4.438;2022-07-15T15:05:09;24.20;29.00
23560;DHT22;11958;50.836;4.438;2022-07-15T15:07:35;24.10;29.00
23560;DHT22;11958;50.836;4.438;2022-07-15T15:10:01;24.20;29.90
23560;DHT22;11958;50.836;4.438;2022-07-15T15:12:27;24.20;28.60
23560;DHT22;11958;50.836;4.438;2022-07-15T15:14:53;24.50;28.80
23560;DHT22;11958;50.836;4.438;2022-07-15T15:17:18;25.90;26.50
23560;DHT22;11958;50.836;4.438;2022-07-15T15:19:44;26.40;24.30
23560;DHT22;11958;50.836;4.438;2022-07-15T15:22:10;25.60;25.70
23560;DHT22;11958;50.836;4.438;2022-07-15T15:24:35;24.90;27.70
23560;DHT22;11958;50.836;4.438;2022-07-15T15:27:02;24.70;28.10
23560;DHT22;11958;50.836;4.438;2022-07-15T15:29:30;24.50;28.30
23560;DHT22;11958;50.836;4.438;2022-07-15T15:31:56;24.50;28.40
23560;DHT22;11958;50.836;4.438;2022-07-15T15:34:21;24.70;28.90
23560;DHT22;11958;50.836;4.438;2022-07-15T15:36:47;24.80;28.30
23560;DHT22;11958;50.836;4.438;2022-07-15T15:39:13;24.70;28.40
23560;DHT22;11958;50.836;4.438;2022-07-15T15:41:39;24.70;29.10
23560;DHT22;11958;50.836;4.438;2022-07-15T15:44:05;24.60;28.30
23560;DHT22;11958;50.836;4.438;2022-07-15T15:46:31;24.60;28.80
23560;DHT22;11958;50.836;4.438;2022-07-15T15:48:57;24.80;29.10
23560;DHT22;11958;50.836;4.438;2022-07-15T15:51:23;24.80;29.50
23560;DHT22;11958;50.836;4.438;2022-07-15T15:53:48;25.20;28.40
23560;DHT22;11958;50.836;4.438;2022-07-15T15:56:14;25.30;27.50
23560;DHT22;11958;50.836;4.438;2022-07-15T15:58:39;25.50;26.20
23560;DHT22;11958;50.836;4.438;2022-07-15T16:01:05;25.10;26.90
23560;DHT22;11958;50.836;4.438;2022-07-15T16:03:31;24.80;27.60
23560;DHT22;11958;50.836;4.438;2022-07-15T16:05:57;24.70;27.90
23560;DHT22;11958;50.836;4.438;2022-07-15T16:08:22;24.60;28.30
23560;DHT22;11958;50.836;4.438;2022-07-15T16:10:48;24.70;27.70
23560;DHT22;11958;50.836;4.438;2022-07-15T16:13:14;24.80;27.30
23560;DHT22;11958;50.836;4.438;2022-07-15T16:15:39;24.80;28.70
23560;DHT22;11958;50.836;4.438;2022-07-15T16:18:05;24.90;28.20
23560;DHT22;11958;50.836;4.438;2022-07-15T16:20:31;24.90;27.80
23560;DHT22;11958;50.836;4.438;2022-07-15T16:22:56;25.00;27.90
23560;DHT22;11958;50.836;4.438;2022-07-15T16:25:32;25.00;27.20
23560;DHT22;11958;50.836;4.438;2022-07-15T16:28:00;24.80;27.10
23560;DHT22;11958;50.836;4.438;2022-07-15T16:30:26;24.60;28.10